• Join FlightAware (Why Join?)
  • Login
  • US Flag 
09:21AM EDT


 

Airport Tracker/Info


-or-


 

Live Flight TrackerFlight Track Log ✈ DCM1130 ✈ 19-Aug-2013 ✈ KPNE - KSPI

Flight Track Log - Related Links

Times and Time Zones

All times are in EDT time to prevent confusion due to time zone crossing. See the DCM1130 flight status page for this flight to view local times or setup timezone preferences in your user account.

Time Position Orientation Groundspeed Altitude Reporting Facility
EDT Latitude Longitude Course Direction KTS MPH feet Rate Location/Type
06:43AM 40.1000 -75.0333 303° West 209 241 1,100  Level Philadelphia TRACON
06:44AM 40.1167 -75.0667 309° West 226 260 2,100 2,640 Climbing Philadelphia TRACON
06:45AM 40.1333 -75.1333 288° West 261 300 5,400 3,120 Climbing Philadelphia TRACON
06:46AM 40.1000 -75.2167 242° Southwest 269 310 8,400 2,340 Climbing Philadelphia TRACON
06:47AM 40.0667 -75.3167 246° West 307 353 9,900 840 Climbing Philadelphia TRACON
06:48AM 40.0333 -75.4167 247° West 338 389 10,000 120 Climbing Philadelphia TRACON
06:49AM 39.9622 -75.5592 237° Southwest 356 410 10,200 1,140 Climbing New York Center
06:50AM 39.9217 -75.6808 247° West 343 395 12,900 2,820 Climbing New York Center
06:51AM 39.9131 -75.7886 264° West 338 389 15,900 2,760 Climbing New York Center
06:52AM 39.9139 -75.9131 271° West 333 383 18,500 2,460 Climbing New York Center
06:53AM 39.9139 -76.0539 270° West 352 405 20,900 2,280 Climbing New York Center
06:54AM 39.9119 -76.1864 269° West 364 419 23,100 1,800 Climbing New York Center
06:55AM 39.9122 -76.3164 270° West 364 419 24,600 1,500 Climbing New York Center
06:56AM 39.9183 -76.4494 273° West 364 419 26,100 1,500 Climbing New York Center
06:57AM 39.9244 -76.5800 274° West 369 425 27,600 1,500 Climbing New York Center
06:58AM 39.9283 -76.7158 272° West 369 425 29,100 1,440 Climbing New York Center
06:59AM 39.9342 -76.8461 273° West 369 425 30,500 1,320 Climbing New York Center
07:00AM 39.9397 -76.9767 273° West 369 425 31,800 1,140 Climbing New York Center
07:01AM 39.9453 -77.1100 273° West 369 425 32,800 960 Climbing New York Center
07:02AM 39.9483 -77.2428 272° West 369 425 33,800 1,020 Climbing New York Center
07:03AM 39.9536 -77.3733 273° West 369 425 34,900 1,020 Climbing New York Center
07:05AM 39.9636 -77.6061 273° West 381 438 36,800 960 Climbing Cleveland Center
07:06AM 39.9689 -77.7333 273° West 370 426 37,800 600 Climbing Cleveland Center
07:07AM 39.9719 -77.8606 272° West 363 418 38,000 60 Climbing Cleveland Center
07:08AM 39.9753 -77.9931 272° West 363 418 38,000  Level Cleveland Center
07:09AM 39.9803 -78.1256 273° West 368 423 38,000  Level Cleveland Center
07:10AM 39.9831 -78.2639 272° West 368 423 38,000  Level Cleveland Center
07:11AM 39.9817 -78.3994 269° West 373 429 38,000  Level Cleveland Center
07:12AM 39.9819 -78.5347 270° West 378 435 38,000  Level Cleveland Center
07:13AM 39.9864 -78.6728 272° West 378 435 38,000  Level Cleveland Center
07:14AM 39.9886 -78.8083 271° West 384 442 38,000  Level Cleveland Center
07:15AM 39.9928 -78.9436 272° West 384 442 38,000  Level Cleveland Center
07:16AM 40.0011 -79.0817 275° West 384 442 38,000  Level Cleveland Center
07:17AM 40.0028 -79.2172 271° West 384 442 38,000  Level Cleveland Center
07:18AM 40.0042 -79.3525 271° West 384 442 38,000  Level Cleveland Center
07:19AM 40.0056 -79.4881 271° West 384 442 38,000  Level Cleveland Center
07:20AM 40.0089 -79.6264 272° West 384 442 38,000  Level Cleveland Center
07:21AM 40.0100 -79.7617 271° West 384 442 38,000  Level Cleveland Center
07:22AM 40.0111 -79.9108 271° West 384 442 38,000  Level Cleveland Center
07:23AM 40.0117 -80.0492 270° West 384 442 38,000 60 Level Cleveland Center
07:24AM 40.0144 -80.1872 272° West 384 442 38,200 600 Climbing Cleveland Center
07:25AM 40.0147 -80.3228 270° West 379 436 39,200 900 Climbing Cleveland Center
07:26AM 40.0150 -80.4531 270° West 379 436 40,000 360 Climbing Cleveland Center
07:27AM 40.0172 -80.5831 271° West 367 422 40,000  Level Cleveland Center
07:28AM 40.0169 -80.7186 270° West 367 422 40,000  Level Cleveland Center
07:29AM 40.0189 -80.8542 271° West 367 422 40,000  Level Cleveland Center
07:30AM 40.0131 -81.0369 268° West 382 440 40,000  Level Indianapolis Center
07:31AM 40.0114 -81.1783 269° West 385 443 40,000  Level Indianapolis Center
07:32AM 40.0086 -81.3208 269° West 389 448 40,000  Level Indianapolis Center
07:33AM 40.0064 -81.4647 269° West 392 451 40,000  Level Indianapolis Center
07:34AM 40.0028 -81.6103 268° West 396 456 40,000  Level Indianapolis Center
07:35AM 39.9997 -81.7572 268° West 401 461 40,000  Level Indianapolis Center
07:36AM 39.9967 -81.9072 269° West 404 465 40,000  Level Indianapolis Center
07:38AM 39.9936 -82.0547 268° West 405 466 40,000  Level Indianapolis Center
07:39AM 39.9906 -82.2053 269° West 411 473 40,000  Level Indianapolis Center
07:40AM 39.9864 -82.3531 268° West 408 470 40,000  Level Indianapolis Center
07:41AM 39.9828 -82.5017 268° West 407 468 40,000  Level Indianapolis Center
07:42AM 39.9767 -82.6792 267° West 417 480 40,000  Level Indianapolis Center
07:43AM 39.9722 -82.8300 268° West 416 479 40,000  Level Indianapolis Center
07:44AM 39.9672 -82.9842 268° West 422 486 40,000  Level Indianapolis Center
07:45AM 39.9642 -83.1358 269° West 419 482 40,000  Level Indianapolis Center
07:46AM 39.9606 -83.2889 268° West 422 486 40,000  Level Indianapolis Center
07:47AM 39.9567 -83.4414 268° West 425 489 40,000  Level Indianapolis Center
07:48AM 39.9508 -83.5967 267° West 436 502 40,000  Level Indianapolis Center
07:49AM 39.9431 -83.7764 267° West 430 495 40,000  Level Indianapolis Center
07:50AM 39.9367 -83.9319 267° West 430 495 40,000  Level Indianapolis Center
07:51AM 39.9300 -84.0889 267° West 432 497 40,000  Level Indianapolis Center
07:52AM 39.9236 -84.2461 267° West 433 498 40,000  Level Indianapolis Center
07:53AM 39.9175 -84.4044 267° West 436 502 40,000  Level Indianapolis Center
07:54AM 39.9103 -84.5619 267° West 434 499 40,000  Level Indianapolis Center
07:55AM 39.9019 -84.7206 266° West 436 502 40,000  Level Indianapolis Center
07:56AM 39.8944 -84.8781 266° West 435 501 40,000  Level Indianapolis Center
07:57AM 39.8872 -85.0403 267° West 435 501 40,000  Level Indianapolis Center
07:58AM 39.8794 -85.1983 266° West 439 505 40,000  Level Indianapolis Center
07:59AM 39.8700 -85.3894 266° West 445 512 40,000  Level Indianapolis Center
08:00AM 39.8611 -85.5475 266° West 441 507 40,000 -300 Level Indianapolis Center
08:01AM 39.8389 -85.7067 260° West 452 520 39,400 -1,020 Descending Indianapolis Center
08:02AM 39.8036 -85.8575 253° West 440 506 37,900 -1,500 Descending Indianapolis Center
08:03AM 39.7703 -86.0061 254° West 431 496 36,400 -1,620 Descending Indianapolis Center
08:04AM 39.7319 -86.1761 254° West 444 511 34,600 -1,620 Descending Indianapolis Center
08:05AM 39.7072 -86.3347 259° West 450 518 33,100 -1,560 Descending Indianapolis Center
08:06AM 39.7128 -86.4981 273° West 461 531 31,500 -1,560 Descending Indianapolis Center
08:07AM 39.7217 -86.6603 274° West 455 524 30,000 -1,560 Descending Indianapolis Center
08:08AM 39.7303 -86.8228 274° West 452 520 28,400 -1,560 Descending Indianapolis Center
08:09AM 39.7383 -86.9844 274° West 451 519 26,900 -1,200 Descending Indianapolis Center
08:10AM 39.7464 -87.1436 274° West 446 513 26,000 -480 Descending Indianapolis Center
08:11AM 39.7553 -87.3325 274° West 438 504 26,000  Level Indianapolis Center
08:12AM 39.7622 -87.4914 273° West 441 507 26,000  Level Indianapolis Center
08:13AM 39.7692 -87.6492 273° West 440 506 26,000  Level Indianapolis Center
08:14AM 39.7761 -87.8067 273° West 439 505 26,000 -780 Level Indianapolis Center
08:15AM 39.7822 -87.9614 273° West 434 499 24,500 -1,680 Descending Indianapolis Center
08:16AM 39.7892 -88.1156 273° West 430 495 22,600 -1,620 Descending Indianapolis Center
08:17AM 39.7917 -88.2142 272° West 430 495 22,000 -420 Descending Kansas City Center
08:18AM 39.7978 -88.3628 273° West 423 487 22,000 -360 Level Kansas City Center
08:19AM 39.8044 -88.5136 273° West 420 483 21,300 -1,740 Descending Kansas City Center
08:20AM 39.8086 -88.6611 272° West 414 476 18,500 -2,460 Descending Kansas City Center
08:21AM 39.8133 -88.8006 273° West 396 456 16,300 -2,220 Descending Kansas City Center
08:22AM 39.8175 -88.9342 272° West 379 436 14,000 -2,160 Descending Kansas City Center
08:23AM 39.8206 -89.0531 272° West 348 400 11,900 -2,040 Descending Kansas City Center
08:24AM 39.8250 -89.1611 273° West 315 362 9,900 -1,920 Descending Kansas City Center
08:25AM 39.8278 -89.2631 272° West 294 338 8,100 -1,740 Descending Kansas City Center
08:26AM 39.8200 -89.3633 264° West 282 325 6,500 -1,560 Descending Kansas City Center
08:27AM 39.8086 -89.4597 261° West 273 314 5,000 -1,680 Descending Kansas City Center
08:28AM 39.7908 -89.5664 258° West 259 298 3,100 -1,560 Descending Kansas City Center
08:29AM 39.8050 -89.6156 291° West 199 229 1,800 -1,080 Descending Kansas City Center
08:30AM 39.8294 -89.6522 311° West 158 182 900 -600 Descending Kansas City Center
08:31AM 39.8519 -89.6897 308° West 153 176 700 -240 Descending Kansas City Center
08:33AM 39.8442 -89.6781 142° Southeast  Level Estimated